Decoded Metar for KRCM ( in _UNIDENTIFIED) (IATA:N/A) | Meteo·Mobile Aviation Weather
aviador You're here:

KRCM Decoded Metar

in _UNIDENTIFIED
Report Time2019-03-23 21:15:00
UTC Time2019-03-23 21:07:35
Flight Rules vfr VFR
Wind170° at 11 Gusting to 15 kt
W.Decomp.*RWY 18: 10.5 kt HW 3.2 kt LCW
RWY 13: 9.2 kt HW 6.0 kt RCW
W.Rank170° ranks 1
Current wind is above 170° avg. (7.5)
Visibility9999 m
Phenomena:N/A
Clouds:Scattered 075 Hf
Expected CloudBase > 3,600 ft AGL from Temp-Dew spread
CeilingNone
Temp15°C (ISA +2)
Dew Point06°C (55% RH)
AAT10.1°C
QNH1018 hPa
Density Alt951 ft
Elevation801 ft
Report Wrong Elevation
Raw Report
KRCM 232115Z AUTO 17011G15KT 10SM SCT075 15/06 A3007 RMK AO2=

Extra information for KRCM:More info

Metar Taf Metar & Taf Last 4 Metars F.Rules Stats Wind Profile Meteogram Temp Stats Metar ALERT Operation Metar Decoded Social comments